Allen Park, Michigan
Current Conditions -  °F | °C
As of 9:53 AM on Thursday 18 Dec 2014 (Local Time) from KDTW Reporting Station
Overcast Overcast  
Wind Chill: -5°   Ceiling: 2500
Heat Index: -1°   Visibility: 10mi
Dew Point: -4°   Wind: 8mph
Humidity: 79%   Direction: 260°W
Pressure: 30.22"   Gusts: NA
Location:  42.26°N, 83.22°W
Report Text: KDTW 181453Z 26007KT 10SM OVC025 M01/M04 A3022 RMK AO2 SLP241 T10061039 53007 $
Loading
Personal Weather Stations






























Interactive Weather Map New forecast layout! Learn more

10-Day Weather Forecast

Advertisements
Track Severe Weather on mobile